sensor_id;sensor_type;location;lat;lon;timestamp;pressure;altitude;pressure_sealevel;temperature;humidity
30897;BME280;64229;52.246;21.054;2023-11-19T00:00:27;101229.84;;;-0.13;100.00
30897;BME280;64229;52.246;21.054;2023-11-19T00:02:52;101239.84;;;-0.08;100.00
30897;BME280;64229;52.246;21.054;2023-11-19T00:05:18;101203.06;;;-0.31;100.00
30897;BME280;64229;52.246;21.054;2023-11-19T00:07:43;101229.84;;;-0.13;100.00
30897;BME280;64229;52.246;21.054;2023-11-19T00:10:14;101226.91;;;-0.10;100.00
30897;BME280;64229;52.246;21.054;2023-11-19T00:12:42;101236.25;;;-0.07;100.00
30897;BME280;64229;52.246;21.054;2023-11-19T00:15:08;101232.97;;;-0.09;100.00
30897;BME280;64229;52.246;21.054;2023-11-19T00:17:40;101235.44;;;-0.08;100.00
30897;BME280;64229;52.246;21.054;2023-11-19T00:20:06;101221.97;;;-0.13;100.00
30897;BME280;64229;52.246;21.054;2023-11-19T00:22:32;101217.38;;;-0.11;100.00
30897;BME280;64229;52.246;21.054;2023-11-19T00:24:58;101223.94;;;-0.07;100.00
30897;BME280;64229;52.246;21.054;2023-11-19T00:27:24;101216.56;;;-0.11;100.00
30897;BME280;64229;52.246;21.054;2023-11-19T00:29:50;101218.06;;;-0.09;100.00
30897;BME280;64229;52.246;21.054;2023-11-19T00:32:15;101214.94;;;-0.12;100.00
30897;BME280;64229;52.246;21.054;2023-11-19T00:34:43;101219.03;;;-0.10;100.00
30897;BME280;64229;52.246;21.054;2023-11-19T00:37:09;101212.31;;;-0.12;100.00
30897;BME280;64229;52.246;21.054;2023-11-19T00:39:35;101207.38;;;-0.07;100.00
30897;BME280;64229;52.246;21.054;2023-11-19T00:42:00;101193.44;;;-0.08;100.00
30897;BME280;64229;52.246;21.054;2023-11-19T00:44:26;101190.63;;;-0.06;100.00
30897;BME280;64229;52.246;21.054;2023-11-19T00:46:51;101185.06;;;-0.11;100.00
30897;BME280;64229;52.246;21.054;2023-11-19T00:49:16;101183.44;;;-0.12;100.00
30897;BME280;64229;52.246;21.054;2023-11-19T00:51:42;101180.81;;;-0.12;100.00
30897;BME280;64229;52.246;21.054;2023-11-19T00:54:07;101182.31;;;-0.10;100.00
30897;BME280;64229;52.246;21.054;2023-11-19T00:56:32;101184.75;;;-0.08;100.00
30897;BME280;64229;52.246;21.054;2023-11-19T00:58:58;101181.31;;;-0.09;100.00
30897;BME280;64229;52.246;21.054;2023-11-19T01:01:25;101173.09;;;-0.06;100.00
30897;BME280;64229;52.246;21.054;2023-11-19T01:03:51;101168.50;;;-0.12;100.00
30897;BME280;64229;52.246;21.054;2023-11-19T01:06:29;101164.91;;;-0.11;100.00
30897;BME280;64229;52.246;21.054;2023-11-19T01:08:55;101157.19;;;-0.12;100.00
30897;BME280;64229;52.246;21.054;2023-11-19T01:11:22;101141.41;;;-0.27;100.00
30897;BME280;64229;52.246;21.054;2023-11-19T01:13:48;101140.75;;;-0.29;100.00
30897;BME280;64229;52.246;21.054;2023-11-19T01:16:14;101147.00;;;-0.30;100.00
30897;BME280;64229;52.246;21.054;2023-11-19T01:18:39;101129.50;;;-0.38;100.00
30897;BME280;64229;52.246;21.054;2023-11-19T01:21:05;101138.94;;;-0.28;100.00
30897;BME280;64229;52.246;21.054;2023-11-19T01:23:31;101113.72;;;-0.30;100.00
30897;BME280;64229;52.246;21.054;2023-11-19T01:25:56;101123.31;;;-0.22;100.00
30897;BME280;64229;52.246;21.054;2023-11-19T01:28:21;101123.16;;;-0.20;100.00
30897;BME280;64229;52.246;21.054;2023-11-19T01:30:47;101129.50;;;-0.15;100.00
30897;BME280;64229;52.246;21.054;2023-11-19T01:33:15;101135.41;;;-0.13;100.00
30897;BME280;64229;52.246;21.054;2023-11-19T01:35:40;101132.28;;;-0.08;100.00
30897;BME280;64229;52.246;21.054;2023-11-19T01:38:06;101133.25;;;-0.09;100.00
30897;BME280;64229;52.246;21.054;2023-11-19T01:40:34;101135.72;;;-0.08;100.00
30897;BME280;64229;52.246;21.054;2023-11-19T01:42:59;101136.38;;;-0.14;100.00
30897;BME280;64229;52.246;21.054;2023-11-19T01:45:28;101132.13;;;-0.15;100.00
30897;BME280;64229;52.246;21.054;2023-11-19T01:47:55;101119.84;;;-0.14;100.00
30897;BME280;64229;52.246;21.054;2023-11-19T01:50:21;101114.59;;;-0.14;100.00
30897;BME280;64229;52.246;21.054;2023-11-19T01:52:48;101107.47;;;-0.28;100.00
30897;BME280;64229;52.246;21.054;2023-11-19T01:55:13;101102.63;;;-0.40;100.00
30897;BME280;64229;52.246;21.054;2023-11-19T01:57:39;101083.84;;;-0.51;100.00
30897;BME280;64229;52.246;21.054;2023-11-19T02:00:07;101097.19;;;-0.38;100.00
30897;BME280;64229;52.246;21.054;2023-11-19T02:02:36;101085.34;;;-0.34;100.00
30897;BME280;64229;52.246;21.054;2023-11-19T02:05:02;101089.56;;;-0.25;100.00
30897;BME280;64229;52.246;21.054;2023-11-19T02:07:28;101095.28;;;-0.21;100.00
30897;BME280;64229;52.246;21.054;2023-11-19T02:09:54;101083.09;;;-0.37;100.00
30897;BME280;64229;52.246;21.054;2023-11-19T02:12:19;101082.94;;;-0.44;100.00
30897;BME280;64229;52.246;21.054;2023-11-19T02:14:45;101087.56;;;-0.46;100.00
30897;BME280;64229;52.246;21.054;2023-11-19T02:17:26;101078.59;;;-0.51;100.00
30897;BME280;64229;52.246;21.054;2023-11-19T02:19:52;101058.75;;;-0.54;100.00
30897;BME280;64229;52.246;21.054;2023-11-19T02:22:18;101054.69;;;-0.34;100.00
30897;BME280;64229;52.246;21.054;2023-11-19T02:24:44;101064.63;;;-0.21;100.00
30897;BME280;64229;52.246;21.054;2023-11-19T02:27:16;101058.66;;;-0.38;100.00
30897;BME280;64229;52.246;21.054;2023-11-19T02:29:46;101067.53;;;-0.39;100.00
30897;BME280;64229;52.246;21.054;2023-11-19T02:32:12;101060.41;;;-0.53;100.00
30897;BME280;64229;52.246;21.054;2023-11-19T02:34:38;101064.06;;;-0.62;100.00
30897;BME280;64229;52.246;21.054;2023-11-19T02:37:04;101057.66;;;-0.60;100.00
30897;BME280;64229;52.246;21.054;2023-11-19T02:39:30;101058.69;;;-0.69;100.00
30897;BME280;64229;52.246;21.054;2023-11-19T02:41:56;101049.19;;;-0.70;100.00
30897;BME280;64229;52.246;21.054;2023-11-19T02:44:21;101037.94;;;-0.78;100.00
30897;BME280;64229;52.246;21.054;2023-11-19T02:46:47;101039.91;;;-0.80;100.00
30897;BME280;64229;52.246;21.054;2023-11-19T02:49:14;101036.75;;;-0.76;100.00
30897;BME280;64229;52.246;21.054;2023-11-19T02:51:40;101031.94;;;-0.64;100.00
30897;BME280;64229;52.246;21.054;2023-11-19T02:54:05;101021.94;;;-0.61;100.00
30897;BME280;64229;52.246;21.054;2023-11-19T02:56:31;101021.78;;;-0.59;100.00
30897;BME280;64229;52.246;21.054;2023-11-19T02:59:00;100998.41;;;-0.69;100.00
30897;BME280;64229;52.246;21.054;2023-11-19T03:01:32;101006.50;;;-0.55;100.00
30897;BME280;64229;52.246;21.054;2023-11-19T03:04:00;101006.09;;;-0.44;100.00
30897;BME280;64229;52.246;21.054;2023-11-19T03:06:27;101006.22;;;-0.38;100.00
30897;BME280;64229;52.246;21.054;2023-11-19T03:08:54;100969.59;;;-0.54;100.00
30897;BME280;64229;52.246;21.054;2023-11-19T03:11:20;100997.88;;;-0.41;100.00
30897;BME280;64229;52.246;21.054;2023-11-19T03:13:46;100992.22;;;-0.30;100.00
30897;BME280;64229;52.246;21.054;2023-11-19T03:16:12;100993.78;;;-0.44;100.00
30897;BME280;64229;52.246;21.054;2023-11-19T03:18:37;100979.50;;;-0.64;100.00
30897;BME280;64229;52.246;21.054;2023-11-19T03:21:05;100985.34;;;-0.54;100.00
30897;BME280;64229;52.246;21.054;2023-11-19T03:23:30;100981.25;;;-0.56;100.00
30897;BME280;64229;52.246;21.054;2023-11-19T03:25:56;100982.78;;;-0.62;100.00
30897;BME280;64229;52.246;21.054;2023-11-19T03:28:22;100965.94;;;-0.68;100.00
30897;BME280;64229;52.246;21.054;2023-11-19T03:30:47;100966.28;;;-0.48;100.00
30897;BME280;64229;52.246;21.054;2023-11-19T03:33:12;100954.94;;;-0.40;100.00
30897;BME280;64229;52.246;21.054;2023-11-19T03:35:38;100945.41;;;-0.04;100.00
30897;BME280;64229;52.246;21.054;2023-11-19T03:38:04;100963.41;;;-0.01;100.00
30897;BME280;64229;52.246;21.054;2023-11-19T03:40:30;100962.94;;;-0.19;100.00
30897;BME280;64229;52.246;21.054;2023-11-19T03:42:56;100960.88;;;-0.46;100.00
30897;BME280;64229;52.246;21.054;2023-11-19T03:45:23;100960.00;;;-0.62;100.00
30897;BME280;64229;52.246;21.054;2023-11-19T03:47:49;100961.00;;;-0.63;100.00
30897;BME280;64229;52.246;21.054;2023-11-19T03:50:15;100961.34;;;-0.66;100.00
30897;BME280;64229;52.246;21.054;2023-11-19T03:52:41;100940.44;;;-0.74;100.00
30897;BME280;64229;52.246;21.054;2023-11-19T03:55:07;100949.34;;;-0.60;100.00
30897;BME280;64229;52.246;21.054;2023-11-19T03:57:34;100930.09;;;-0.75;100.00
30897;BME280;64229;52.246;21.054;2023-11-19T03:59:59;100934.22;;;-0.73;100.00
30897;BME280;64229;52.246;21.054;2023-11-19T04:02:25;100929.69;;;-0.64;100.00
30897;BME280;64229;52.246;21.054;2023-11-19T04:04:53;100888.25;;;-0.83;100.00
30897;BME280;64229;52.246;21.054;2023-11-19T04:07:18;100906.53;;;-0.52;100.00
30897;BME280;64229;52.246;21.054;2023-11-19T04:09:44;100918.28;;;0.04;100.00
30897;BME280;64229;52.246;21.054;2023-11-19T04:12:09;100912.41;;;0.02;100.00
30897;BME280;64229;52.246;21.054;2023-11-19T04:14:36;100881.25;;;-0.31;100.00
30897;BME280;64229;52.246;21.054;2023-11-19T04:17:01;100874.78;;;-0.43;100.00
30897;BME280;64229;52.246;21.054;2023-11-19T04:19:27;100887.81;;;-0.49;100.00
30897;BME280;64229;52.246;21.054;2023-11-19T04:21:53;100889.63;;;-0.50;100.00
30897;BME280;64229;52.246;21.054;2023-11-19T04:24:18;100888.69;;;-0.57;100.00
30897;BME280;64229;52.246;21.054;2023-11-19T04:26:45;100884.34;;;0.03;100.00
30897;BME280;64229;52.246;21.054;2023-11-19T04:29:12;100875.56;;;-0.05;100.00
30897;BME280;64229;52.246;21.054;2023-11-19T04:31:38;100869.31;;;0.11;100.00
30897;BME280;64229;52.246;21.054;2023-11-19T04:34:05;100878.38;;;-0.21;100.00
30897;BME280;64229;52.246;21.054;2023-11-19T04:36:31;100870.19;;;-0.41;100.00
30897;BME280;64229;52.246;21.054;2023-11-19T04:38:58;100862.59;;;-0.36;100.00
30897;BME280;64229;52.246;21.054;2023-11-19T04:41:24;100856.16;;;-0.33;100.00
30897;BME280;64229;52.246;21.054;2023-11-19T04:43:50;100859.13;;;-0.51;100.00
30897;BME280;64229;52.246;21.054;2023-11-19T04:46:15;100856.25;;;-0.41;100.00
30897;BME280;64229;52.246;21.054;2023-11-19T04:48:41;100846.38;;;-0.54;100.00
30897;BME280;64229;52.246;21.054;2023-11-19T04:51:07;100821.75;;;-0.82;100.00
30897;BME280;64229;52.246;21.054;2023-11-19T04:53:34;100854.91;;;-0.75;100.00
30897;BME280;64229;52.246;21.054;2023-11-19T04:56:00;100840.19;;;-0.76;100.00
30897;BME280;64229;52.246;21.054;2023-11-19T04:58:25;100839.41;;;-0.62;100.00
30897;BME280;64229;52.246;21.054;2023-11-19T05:00:50;100842.16;;;-0.40;100.00
30897;BME280;64229;52.246;21.054;2023-11-19T05:03:16;100833.56;;;-0.49;100.00
30897;BME280;64229;52.246;21.054;2023-11-19T05:05:41;100834.97;;;-0.61;100.00
30897;BME280;64229;52.246;21.054;2023-11-19T05:08:06;100825.50;;;-0.62;100.00
30897;BME280;64229;52.246;21.054;2023-11-19T05:10:32;100826.56;;;-0.71;100.00
30897;BME280;64229;52.246;21.054;2023-11-19T05:12:57;100825.44;;;-0.77;100.00
30897;BME280;64229;52.246;21.054;2023-11-19T05:15:22;100813.94;;;-0.53;100.00
30897;BME280;64229;52.246;21.054;2023-11-19T05:17:48;100810.91;;;-0.65;100.00
30897;BME280;64229;52.246;21.054;2023-11-19T05:20:13;100804.50;;;-0.62;100.00
30897;BME280;64229;52.246;21.054;2023-11-19T05:22:42;100802.53;;;-0.60;100.00
30897;BME280;64229;52.246;21.054;2023-11-19T05:25:08;100801.09;;;-0.48;100.00
30897;BME280;64229;52.246;21.054;2023-11-19T05:27:37;100807.44;;;-0.42;100.00
30897;BME280;64229;52.246;21.054;2023-11-19T05:30:06;100796.75;;;-0.41;100.00
30897;BME280;64229;52.246;21.054;2023-11-19T05:32:36;100782.53;;;-0.46;100.00
30897;BME280;64229;52.246;21.054;2023-11-19T05:35:01;100801.72;;;-0.46;100.00
30897;BME280;64229;52.246;21.054;2023-11-19T05:37:27;100795.22;;;-0.50;100.00
30897;BME280;64229;52.246;21.054;2023-11-19T05:39:52;100795.47;;;-0.60;100.00
30897;BME280;64229;52.246;21.054;2023-11-19T05:42:18;100801.22;;;-0.64;100.00
30897;BME280;64229;52.246;21.054;2023-11-19T05:44:43;100802.22;;;-0.65;100.00
30897;BME280;64229;52.246;21.054;2023-11-19T05:47:08;100799.47;;;-0.64;100.00
30897;BME280;64229;52.246;21.054;2023-11-19T05:49:34;100792.41;;;-0.63;100.00
30897;BME280;64229;52.246;21.054;2023-11-19T05:51:59;100785.53;;;-0.49;100.00
30897;BME280;64229;52.246;21.054;2023-11-19T05:54:26;100795.75;;;-0.40;100.00
30897;BME280;64229;52.246;21.054;2023-11-19T05:56:52;100788.78;;;-0.33;100.00
30897;BME280;64229;52.246;21.054;2023-11-19T05:59:19;100788.25;;;-0.28;100.00
30897;BME280;64229;52.246;21.054;2023-11-19T06:01:45;100792.59;;;-0.20;100.00
30897;BME280;64229;52.246;21.054;2023-11-19T06:04:10;100788.16;;;-0.20;100.00
30897;BME280;64229;52.246;21.054;2023-11-19T06:06:36;100794.94;;;-0.25;100.00
30897;BME280;64229;52.246;21.054;2023-11-19T06:09:02;100786.34;;;-0.34;100.00
30897;BME280;64229;52.246;21.054;2023-11-19T06:11:28;100791.06;;;-0.30;100.00
30897;BME280;64229;52.246;21.054;2023-11-19T06:13:54;100787.09;;;-0.40;100.00
30897;BME280;64229;52.246;21.054;2023-11-19T06:16:19;100778.19;;;-0.54;100.00
30897;BME280;64229;52.246;21.054;2023-11-19T06:18:45;100787.16;;;-0.48;100.00
30897;BME280;64229;52.246;21.054;2023-11-19T06:21:12;100781.22;;;-0.42;100.00
30897;BME280;64229;52.246;21.054;2023-11-19T06:23:37;100780.72;;;-0.46;100.00
30897;BME280;64229;52.246;21.054;2023-11-19T06:26:03;100776.78;;;-0.42;100.00
30897;BME280;64229;52.246;21.054;2023-11-19T06:28:28;100773.78;;;-0.39;100.00
30897;BME280;64229;52.246;21.054;2023-11-19T06:30:54;100767.34;;;-0.36;100.00
30897;BME280;64229;52.246;21.054;2023-11-19T06:33:19;100774.31;;;-0.28;100.00
30897;BME280;64229;52.246;21.054;2023-11-19T06:35:44;100762.00;;;-0.13;100.00
30897;BME280;64229;52.246;21.054;2023-11-19T06:38:10;100763.00;;;0.01;100.00
30897;BME280;64229;52.246;21.054;2023-11-19T06:40:36;100759.38;;;-0.13;100.00
30897;BME280;64229;52.246;21.054;2023-11-19T06:43:01;100762.28;;;-0.23;100.00
30897;BME280;64229;52.246;21.054;2023-11-19T06:45:30;100755.50;;;-0.32;100.00
30897;BME280;64229;52.246;21.054;2023-11-19T06:47:55;100745.47;;;-0.28;100.00
30897;BME280;64229;52.246;21.054;2023-11-19T06:50:21;100739.38;;;-0.14;100.00
30897;BME280;64229;52.246;21.054;2023-11-19T06:52:46;100727.69;;;-0.12;100.00
30897;BME280;64229;52.246;21.054;2023-11-19T06:55:12;100728.34;;;-0.10;100.00
30897;BME280;64229;52.246;21.054;2023-11-19T06:57:37;100733.88;;;-0.19;100.00
30897;BME280;64229;52.246;21.054;2023-11-19T07:00:03;100728.72;;;-0.27;100.00
30897;BME280;64229;52.246;21.054;2023-11-19T07:02:31;100728.81;;;-0.21;100.00
30897;BME280;64229;52.246;21.054;2023-11-19T07:04:56;100718.50;;;-0.22;100.00
30897;BME280;64229;52.246;21.054;2023-11-19T07:07:22;100697.78;;;-0.32;100.00
30897;BME280;64229;52.246;21.054;2023-11-19T07:09:47;100721.50;;;-0.25;100.00
30897;BME280;64229;52.246;21.054;2023-11-19T07:12:13;100705.22;;;-0.36;100.00
30897;BME280;64229;52.246;21.054;2023-11-19T07:14:39;100707.78;;;-0.42;100.00
30897;BME280;64229;52.246;21.054;2023-11-19T07:17:05;100704.47;;;-0.15;100.00
30897;BME280;64229;52.246;21.054;2023-11-19T07:19:31;100706.56;;;-0.25;100.00
30897;BME280;64229;52.246;21.054;2023-11-19T07:21:56;100695.94;;;-0.53;100.00
30897;BME280;64229;52.246;21.054;2023-11-19T07:24:22;100699.53;;;-0.39;100.00
30897;BME280;64229;52.246;21.054;2023-11-19T07:26:47;100696.81;;;-0.31;100.00
30897;BME280;64229;52.246;21.054;2023-11-19T07:29:14;100697.63;;;-0.45;100.00
30897;BME280;64229;52.246;21.054;2023-11-19T07:31:41;100698.22;;;-0.14;100.00
30897;BME280;64229;52.246;21.054;2023-11-19T07:34:07;100700.06;;;-0.29;100.00
30897;BME280;64229;52.246;21.054;2023-11-19T07:36:34;100687.84;;;-0.37;100.00
30897;BME280;64229;52.246;21.054;2023-11-19T07:39:00;100688.16;;;-0.46;100.00
30897;BME280;64229;52.246;21.054;2023-11-19T07:41:25;100685.72;;;-0.48;100.00
30897;BME280;64229;52.246;21.054;2023-11-19T07:43:51;100689.34;;;-0.64;100.00
30897;BME280;64229;52.246;21.054;2023-11-19T07:46:18;100690.06;;;-0.70;100.00
30897;BME280;64229;52.246;21.054;2023-11-19T07:48:46;100687.69;;;-0.65;100.00
30897;BME280;64229;52.246;21.054;2023-11-19T07:51:14;100676.84;;;-0.47;100.00
30897;BME280;64229;52.246;21.054;2023-11-19T07:53:40;100663.00;;;-0.55;100.00
30897;BME280;64229;52.246;21.054;2023-11-19T07:56:07;100671.06;;;-0.42;100.00
30897;BME280;64229;52.246;21.054;2023-11-19T07:58:33;100671.94;;;-0.20;100.00
30897;BME280;64229;52.246;21.054;2023-11-19T08:00:58;100668.16;;;-0.11;100.00
30897;BME280;64229;52.246;21.054;2023-11-19T08:03:24;100648.63;;;-0.45;100.00
30897;BME280;64229;52.246;21.054;2023-11-19T08:05:50;100660.72;;;-0.44;100.00
30897;BME280;64229;52.246;21.054;2023-11-19T08:08:16;100635.78;;;-0.40;100.00
30897;BME280;64229;52.246;21.054;2023-11-19T08:10:42;100649.16;;;0.02;100.00
30897;BME280;64229;52.246;21.054;2023-11-19T08:13:08;100649.25;;;-0.07;100.00
30897;BME280;64229;52.246;21.054;2023-11-19T08:15:34;100646.84;;;-0.23;100.00
30897;BME280;64229;52.246;21.054;2023-11-19T08:17:59;100638.19;;;-0.02;100.00
30897;BME280;64229;52.246;21.054;2023-11-19T08:20:24;100624.31;;;-0.17;100.00
30897;BME280;64229;52.246;21.054;2023-11-19T08:22:50;100630.00;;;-0.14;100.00
30897;BME280;64229;52.246;21.054;2023-11-19T08:25:15;100637.97;;;-0.22;100.00
30897;BME280;64229;52.246;21.054;2023-11-19T08:27:41;100625.25;;;-0.25;100.00
30897;BME280;64229;52.246;21.054;2023-11-19T08:30:06;100622.50;;;-0.17;100.00
30897;BME280;64229;52.246;21.054;2023-11-19T08:32:32;100619.19;;;-0.25;100.00
30897;BME280;64229;52.246;21.054;2023-11-19T08:34:58;100607.97;;;-0.19;100.00
30897;BME280;64229;52.246;21.054;2023-11-19T08:37:23;100610.63;;;-0.13;100.00
30897;BME280;64229;52.246;21.054;2023-11-19T08:39:50;100607.09;;;-0.05;100.00
30897;BME280;64229;52.246;21.054;2023-11-19T08:42:16;100607.88;;;0.17;100.00
30897;BME280;64229;52.246;21.054;2023-11-19T08:44:42;100603.50;;;0.24;100.00
30897;BME280;64229;52.246;21.054;2023-11-19T08:47:09;100586.19;;;0.29;100.00
30897;BME280;64229;52.246;21.054;2023-11-19T08:49:36;100604.66;;;0.71;100.00
30897;BME280;64229;52.246;21.054;2023-11-19T08:52:01;100605.94;;;0.81;100.00
30897;BME280;64229;52.246;21.054;2023-11-19T08:54:27;100604.91;;;0.76;100.00
30897;BME280;64229;52.246;21.054;2023-11-19T08:56:52;100607.00;;;0.87;100.00
30897;BME280;64229;52.246;21.054;2023-11-19T08:59:18;100600.94;;;0.93;100.00
30897;BME280;64229;52.246;21.054;2023-11-19T09:01:44;100595.16;;;1.04;100.00
30897;BME280;64229;52.246;21.054;2023-11-19T09:04:09;100590.44;;;0.93;100.00
30897;BME280;64229;52.246;21.054;2023-11-19T09:06:36;100591.56;;;0.77;100.00
30897;BME280;64229;52.246;21.054;2023-11-19T09:09:01;100582.09;;;0.83;100.00
30897;BME280;64229;52.246;21.054;2023-11-19T09:11:28;100578.69;;;0.89;100.00
30897;BME280;64229;52.246;21.054;2023-11-19T09:13:54;100570.75;;;0.76;100.00
30897;BME280;64229;52.246;21.054;2023-11-19T09:16:19;100565.38;;;0.56;100.00
30897;BME280;64229;52.246;21.054;2023-11-19T09:18:44;100561.13;;;0.55;100.00
30897;BME280;64229;52.246;21.054;2023-11-19T09:21:11;100570.19;;;0.52;100.00
30897;BME280;64229;52.246;21.054;2023-11-19T09:23:36;100558.03;;;0.45;100.00
30897;BME280;64229;52.246;21.054;2023-11-19T09:26:08;100555.44;;;0.51;100.00
30897;BME280;64229;52.246;21.054;2023-11-19T09:28:35;100562.22;;;0.67;100.00
30897;BME280;64229;52.246;21.054;2023-11-19T09:31:01;100544.91;;;0.79;100.00
30897;BME280;64229;52.246;21.054;2023-11-19T09:33:29;100537.69;;;0.95;100.00
30897;BME280;64229;52.246;21.054;2023-11-19T09:35:55;100541.19;;;1.08;100.00
30897;BME280;64229;52.246;21.054;2023-11-19T09:38:20;100538.31;;;1.03;100.00
30897;BME280;64229;52.246;21.054;2023-11-19T09:40:46;100537.25;;;0.91;100.00
30897;BME280;64229;52.246;21.054;2023-11-19T09:43:14;100527.34;;;0.52;100.00
30897;BME280;64229;52.246;21.054;2023-11-19T09:45:48;100520.66;;;0.43;100.00
30897;BME280;64229;52.246;21.054;2023-11-19T09:48:16;100527.47;;;0.37;100.00
30897;BME280;64229;52.246;21.054;2023-11-19T09:50:42;100521.00;;;0.40;100.00
30897;BME280;64229;52.246;21.054;2023-11-19T09:53:08;100515.53;;;0.35;100.00
30897;BME280;64229;52.246;21.054;2023-11-19T09:55:33;100513.81;;;0.48;100.00
30897;BME280;64229;52.246;21.054;2023-11-19T09:58:00;100504.75;;;0.23;100.00
30897;BME280;64229;52.246;21.054;2023-11-19T10:00:27;100509.63;;;0.26;100.00
30897;BME280;64229;52.246;21.054;2023-11-19T10:02:53;100499.66;;;0.15;100.00
30897;BME280;64229;52.246;21.054;2023-11-19T10:05:20;100503.91;;;0.16;100.00
30897;BME280;64229;52.246;21.054;2023-11-19T10:07:46;100492.91;;;0.34;100.00
30897;BME280;64229;52.246;21.054;2023-11-19T10:10:12;100486.63;;;0.69;100.00
30897;BME280;64229;52.246;21.054;2023-11-19T10:12:40;100472.34;;;0.37;100.00
30897;BME280;64229;52.246;21.054;2023-11-19T10:15:06;100480.59;;;0.34;100.00
30897;BME280;64229;52.246;21.054;2023-11-19T10:17:38;100478.59;;;0.36;100.00
30897;BME280;64229;52.246;21.054;2023-11-19T10:20:04;100471.47;;;0.30;100.00
30897;BME280;64229;52.246;21.054;2023-11-19T10:22:29;100467.47;;;0.75;100.00
30897;BME280;64229;52.246;21.054;2023-11-19T10:24:55;100459.66;;;0.95;100.00
30897;BME280;64229;52.246;21.054;2023-11-19T10:27:24;100441.53;;;0.59;100.00
30897;BME280;64229;52.246;21.054;2023-11-19T10:29:49;100455.72;;;0.65;100.00
30897;BME280;64229;52.246;21.054;2023-11-19T10:32:14;100455.28;;;0.61;100.00
30897;BME280;64229;52.246;21.054;2023-11-19T10:34:40;100458.50;;;0.56;100.00
30897;BME280;64229;52.246;21.054;2023-11-19T10:37:06;100446.25;;;0.77;100.00
30897;BME280;64229;52.246;21.054;2023-11-19T10:39:54;100433.78;;;0.44;100.00
30897;BME280;64229;52.246;21.054;2023-11-19T10:42:20;100442.31;;;0.53;100.00
30897;BME280;64229;52.246;21.054;2023-11-19T10:44:45;100416.44;;;0.43;100.00
30897;BME280;64229;52.246;21.054;2023-11-19T10:47:11;100423.50;;;0.49;100.00
30897;BME280;64229;52.246;21.054;2023-11-19T10:49:38;100418.09;;;0.57;100.00
30897;BME280;64229;52.246;21.054;2023-11-19T10:52:05;100398.63;;;0.39;100.00
30897;BME280;64229;52.246;21.054;2023-11-19T10:54:30;100418.16;;;0.29;100.00
30897;BME280;64229;52.246;21.054;2023-11-19T10:57:01;100404.38;;;0.69;100.00
30897;BME280;64229;52.246;21.054;2023-11-19T10:59:30;100400.47;;;0.51;100.00
30897;BME280;64229;52.246;21.054;2023-11-19T11:01:57;100403.00;;;0.25;100.00
30897;BME280;64229;52.246;21.054;2023-11-19T11:04:23;100386.59;;;0.16;100.00
30897;BME280;64229;52.246;21.054;2023-11-19T11:06:51;100378.09;;;0.14;100.00
30897;BME280;64229;52.246;21.054;2023-11-19T11:09:17;100374.88;;;0.19;100.00
30897;BME280;64229;52.246;21.054;2023-11-19T11:11:46;100353.06;;;0.12;100.00
30897;BME280;64229;52.246;21.054;2023-11-19T11:14:13;100352.31;;;0.31;100.00
30897;BME280;64229;52.246;21.054;2023-11-19T11:16:42;100354.13;;;0.24;100.00
30897;BME280;64229;52.246;21.054;2023-11-19T11:19:10;100348.88;;;0.31;100.00
30897;BME280;64229;52.246;21.054;2023-11-19T11:21:37;100326.72;;;0.40;100.00
30897;BME280;64229;52.246;21.054;2023-11-19T11:26:59;100336.56;;;0.31;100.00
30897;BME280;64229;52.246;21.054;2023-11-19T11:35:21;100316.78;;;0.22;100.00
30897;BME280;64229;52.246;21.054;2023-11-19T11:37:49;100311.09;;;0.18;100.00
30897;BME280;64229;52.246;21.054;2023-11-19T11:40:18;100308.63;;;0.10;100.00
30897;BME280;64229;52.246;21.054;2023-11-19T11:42:44;100308.34;;;0.33;100.00
30897;BME280;64229;52.246;21.054;2023-11-19T11:45:11;100308.69;;;0.23;100.00
30897;BME280;64229;52.246;21.054;2023-11-19T11:50:11;100302.44;;;0.24;100.00
30897;BME280;64229;52.246;21.054;2023-11-19T11:55:28;100288.75;;;0.42;100.00
30897;BME280;64229;52.246;21.054;2023-11-19T11:57:59;100275.41;;;0.37;100.00
30897;BME280;64229;52.246;21.054;2023-11-19T12:00:37;100275.78;;;0.27;100.00
30897;BME280;64229;52.246;21.054;2023-11-19T12:03:05;100274.13;;;0.20;100.00
30897;BME280;64229;52.246;21.054;2023-11-19T12:05:30;100255.00;;;0.33;100.00
30897;BME280;64229;52.246;21.054;2023-11-19T12:08:01;100245.69;;;0.23;100.00
30897;BME280;64229;52.246;21.054;2023-11-19T12:10:45;100250.34;;;0.21;100.00
30897;BME280;64229;52.246;21.054;2023-11-19T12:13:15;100245.53;;;0.38;100.00
30897;BME280;64229;52.246;21.054;2023-11-19T12:18:23;100219.25;;;0.25;100.00
30897;BME280;64229;52.246;21.054;2023-11-19T12:20:48;100235.44;;;0.48;100.00
30897;BME280;64229;52.246;21.054;2023-11-19T12:23:14;100221.88;;;0.32;100.00
30897;BME280;64229;52.246;21.054;2023-11-19T12:25:40;100228.56;;;0.41;100.00
30897;BME280;64229;52.246;21.054;2023-11-19T12:28:11;100215.41;;;0.27;100.00
30897;BME280;64229;52.246;21.054;2023-11-19T12:30:37;100216.44;;;0.40;100.00
30897;BME280;64229;52.246;21.054;2023-11-19T12:33:10;100205.09;;;0.19;100.00
30897;BME280;64229;52.246;21.054;2023-11-19T12:35:39;100200.28;;;0.49;100.00
30897;BME280;64229;52.246;21.054;2023-11-19T12:38:05;100189.75;;;0.29;100.00
30897;BME280;64229;52.246;21.054;2023-11-19T12:40:31;100182.47;;;0.18;100.00
30897;BME280;64229;52.246;21.054;2023-11-19T12:42:57;100199.06;;;0.25;100.00
30897;BME280;64229;52.246;21.054;2023-11-19T12:45:22;100189.78;;;0.23;100.00